San Juan Capistrano, California
Current Conditions -  °F | °C
As of 11:53 AM on Wednesday 26 Nov 2014 (Local Time) from KSNA Reporting Station
Clear Clear  
Wind Chill: 80°   Ceiling: Unl
Heat Index: 80°   Visibility: 10mi
Dew Point: 33°   Wind: 5mph
Humidity: 18%   Direction: 330°NNW
Pressure: 30.17"   Gusts: NA
Location:  33.5°N, 117.66°W
Report Text: KSNA 261953Z 33004KT 10SM CLR 27/01 A3017 RMK AO2 SLP216 T02670006
Loading
Personal Weather Stations






























Interactive Weather Map New forecast layout! Learn more

10-Day Weather Forecast

Advertisements
Track Severe Weather on mobile